Nibulon 5 — UUAZ2 — position and weather

sailwx.info

Track history (hours):
 
Tides and Currents Weather Stations Pressure Air Temp Water Temp Dewpoint Dewpoint Depression Visibility Wind Speed Wind Dir Waves Ship Positions

Nibulon 5

Last reported at 2017-Oct-22 07:52 UTC. Time now 2017-Oct-22 08:03 UTC.
Position N 47°37' E 035°03'.

Length 38 m; draft 2.6 m.

Type: Tug. MMSI: 272735000.

Date/timePositionNaut miles runAvg speedWind from/ knotsBaromVisibWave heightAir tempDewpointWater temp
2017-Oct-22 07:52N 47°37' E 035°03'0 0.0
2017-Oct-22 07:28N 47°37' E 035°03'0 0.0
2017-Oct-22 06:58N 47°37' E 035°03'0 0.0
2017-Oct-22 06:04N 47°37' E 035°03'0 0.0
2017-Oct-22 05:58N 47°37' E 035°03'0 0.0
2017-Oct-21 19:02N 47°37' E 035°03'0 0.8
2017-Oct-21 19:00N 47°37' E 035°03'1 1.4
2017-Oct-21 18:30N 47°37' E 035°03'3 5.1
2017-Oct-21 18:00N 47°34' E 035°01'7 5.2
2017-Oct-21 16:43N 47°33' E 034°51'1 5.2
2017-Oct-21 16:30N 47°32' E 034°50'13 5.1
2017-Oct-21 13:58N 47°35' E 034°32'76 2.7
2017-Oct-20 10:00N 46°46' E 033°06'3 0.2
2017-Oct-19 19:50N 46°45' E 033°02'0 0.0
2017-Oct-19 19:20N 46°45' E 033°02'0 0.0
2017-Oct-19 18:56N 46°45' E 033°02'0 0.0
2017-Oct-19 17:11N 46°45' E 033°02'0 1.0
2017-Oct-19 17:00N 46°44' E 033°02'2 3.8
2017-Oct-19 16:30N 46°44' E 032°59'28 3.9
2017-Oct-19 09:17N 46°33' E 032°22'1 4.2
2017-Oct-19 09:01N 46°33' E 032°20'2 4.4
2017-Oct-19 08:30N 46°33' E 032°17'3 4.4
2017-Oct-19 07:55N 46°33' E 032°13'2 4.4
2017-Oct-19 07:30N 46°32' E 032°11'2 4.4
2017-Oct-19 06:59N 46°32' E 032°07'2 4.3
2017-Oct-19 06:30N 46°32' E 032°04'2 4.4
2017-Oct-19 06:00N 46°32' E 032°01'2 4.3
2017-Oct-19 05:30N 46°33' E 031°58'2 4.4
2017-Oct-19 05:00N 46°34' E 031°55'2 4.5
2017-Oct-19 04:30N 46°35' E 031°52'2 4.5
2017-Oct-19 04:00N 46°35' E 031°49'2 4.6
2017-Oct-19 03:30N 46°36' E 031°46'2 4.5
2017-Oct-19 03:00N 46°35' E 031°43'2 4.4
2017-Oct-19 02:30N 46°35' E 031°39'2 4.4
2017-Oct-19 02:01N 46°36' E 031°36'1 1.9
2017-Oct-19 01:30N 46°36' E 031°35'0 0.1
2017-Oct-19 01:00N 46°36' E 031°35'2 3.3
2017-Oct-19 00:30N 46°35' E 031°33'2 4.8
2017-Oct-19 00:00N 46°36' E 031°30'2 4.8
2017-Oct-18 23:31N 46°35' E 031°27'3 5.3
2017-Oct-18 23:00N 46°35' E 031°23'3 5.5
2017-Oct-18 22:27N 46°35' E 031°18'2 3.7
2017-Oct-18 22:00N 46°34' E 031°16'0 0.0
2017-Oct-18 18:25N 46°34' E 031°17'1 3.3
2017-Oct-18 18:00N 46°35' E 031°18'2 4.3
2017-Oct-18 17:31N 46°35' E 031°21'2 4.3
2017-Oct-18 16:57N 46°35' E 031°25'2 4.2
2017-Oct-18 16:30N 46°35' E 031°28'4 3.4
2017-Oct-18 15:23N 46°35' E 031°33'1 3.8
2017-Oct-18 14:59N 46°36' E 031°35'0 0.4
2017-Oct-18 14:01N 46°36' E 031°35'2 4.0
2017-Oct-18 13:30N 46°35' E 031°33'11 1.7
2017-Oct-18 06:52N 46°34' E 031°16'0 0.1
2017-Oct-18 06:25N 46°34' E 031°16'0 0.1
2017-Oct-18 05:55N 46°34' E 031°16'0 0.1
2017-Oct-18 05:19N 46°34' E 031°16'0 0.0
2017-Oct-18 03:38N 46°34' E 031°16'1 0.2
2017-Oct-17 23:52N 46°34' E 031°17'8 4.1
2017-Oct-17 21:47N 46°36' E 031°29'3 4.2
2017-Oct-17 21:05N 46°35' E 031°33'1 4.8
2017-Oct-17 20:59N 46°35' E 031°34'6 0.5
2017-Oct-17 09:45N 46°35' E 031°42'1 3.2
2017-Oct-17 09:29N 46°35' E 031°43'2 3.2
2017-Oct-17 08:59N 46°35' E 031°46'2 3.2
2017-Oct-17 08:28N 46°36' E 031°48'2 3.0
2017-Oct-17 07:43N 46°35' E 031°51'1 3.0
2017-Oct-17 07:31N 46°35' E 031°52'2 3.0
2017-Oct-17 07:00N 46°34' E 031°54'1 3.0
2017-Oct-17 06:31N 46°34' E 031°56'1 3.0
2017-Oct-17 06:01N 46°33' E 031°58'1 3.0
2017-Oct-17 05:30N 46°33' E 032°00'2 3.0
2017-Oct-17 05:00N 46°32' E 032°02'1 3.0
2017-Oct-17 04:30N 46°32' E 032°05'1 2.8
2017-Oct-17 04:00N 46°32' E 032°07'4 2.8
2017-Oct-17 02:45N 46°33' E 032°12'1 3.0
2017-Oct-17 02:29N 46°33' E 032°13'3 3.0
2017-Oct-17 01:36N 46°33' E 032°16'0 3.3
2017-Oct-17 01:31N 46°33' E 032°17'95 2.0
2017-Oct-15 02:42N 47°29' E 034°10'26 2.8
2017-Oct-14 17:35N 47°31' E 034°48'1 3.0
2017-Oct-14 17:11N 47°32' E 034°50'1 2.9
2017-Oct-14 16:56N 47°32' E 034°51'6 2.7
2017-Oct-14 14:43N 47°34' E 034°59'1 3.1
2017-Oct-14 14:27N 47°34' E 035°00'1 2.9
2017-Oct-14 14:00N 47°35' E 035°02'2 3.1
2017-Oct-14 13:30N 47°36' E 035°03'1 2.3
2017-Oct-14 13:00N 47°37' E 035°03'0 0.1
2017-Oct-14 12:30N 47°37' E 035°03'0 0.4
2017-Oct-14 11:47N 47°37' E 035°03'0 1.3
2017-Oct-14 11:30N 47°37' E 035°03'1 2.5
2017-Oct-14 11:00N 47°38' E 035°05'1 1.5
2017-Oct-14 10:30N 47°37' E 035°04'1 0.1
2017-Oct-13 23:16N 47°37' E 035°03'0 0.3
2017-Oct-13 23:00N 47°37' E 035°03'0 0.3
2017-Oct-13 22:30N 47°37' E 035°03'0 0.0
2017-Oct-13 22:00N 47°37' E 035°03'0 0.0
2017-Oct-13 18:31N 47°37' E 035°03'0 1.3
2017-Oct-13 18:30N 47°37' E 035°03'2 3.3
2017-Oct-13 18:00N 47°38' E 035°05'0 0.7
2017-Oct-13 17:30N 47°38' E 035°05'1 2.5
2017-Oct-13 17:00N 47°39' E 035°06'2 3.5
2017-Oct-13 16:30N 47°41' E 035°07'2 3.6
2017-Oct-13 16:00N 47°42' E 035°08'2 3.5
2017-Oct-13 15:30N 47°44' E 035°10'2 3.4
2017-Oct-13 15:00N 47°45' E 035°10'2 3.1
2017-Oct-13 14:30N 47°47' E 035°09'2 3.0
2017-Oct-13 14:00N 47°48' E 035°09'0 1.0
2017-Oct-13 13:30N 47°48' E 035°10'3 6.8
2017-Oct-13 13:00N 47°45' E 035°10'3 6.9
2017-Oct-13 12:30N 47°41' E 035°08'4 7.0
2017-Oct-13 12:00N 47°38' E 035°06'2 1.8
2017-Oct-13 10:51N 47°37' E 035°03'1 1.6
2017-Oct-13 10:30N 47°37' E 035°04'2 3.4
2017-Oct-13 10:00N 47°38' E 035°06'2 3.3
2017-Oct-13 09:30N 47°40' E 035°07'2 3.5
2017-Oct-13 09:00N 47°41' E 035°08'2 3.4
2017-Oct-13 08:31N 47°43' E 035°09'2 3.3
2017-Oct-13 08:00N 47°45' E 035°10'2 3.5
2017-Oct-13 07:30N 47°46' E 035°09'2 3.3
2017-Oct-13 07:00N 47°48' E 035°10'1 1.9
2017-Oct-13 06:30N 47°49' E 035°09'0 0.3
2017-Oct-13 06:00N 47°49' E 035°09'2 4.3
2017-Oct-13 05:30N 47°50' E 035°06'2 3.7
2017-Oct-13 05:00N 47°52' E 035°05'0 0.7
2017-Oct-13 04:30N 47°52' E 035°06'0 0.5
2017-Oct-13 04:00N 47°52' E 035°06'1 2.0
2017-Oct-13 03:30N 47°53' E 035°06'1 2.4
2017-Oct-13 03:00N 47°52' E 035°06'0 0.1
2017-Oct-13 02:30N 47°52' E 035°05'3 5.6
2017-Oct-13 02:00N 47°49' E 035°08'1 2.2
2017-Oct-13 01:30N 47°49' E 035°09'2 4.5
2017-Oct-13 01:00N 47°50' E 035°06'2 3.6
2017-Oct-13 00:30N 47°52' E 035°05'0 0.3
2017-Oct-13 00:00N 47°52' E 035°05'1 1.7
2017-Oct-12 23:30N 47°53' E 035°06'1 1.6
2017-Oct-12 23:00N 47°52' E 035°06'0 0.1
2017-Oct-12 22:30N 47°52' E 035°06'3 5.2
2017-Oct-12 22:01N 47°50' E 035°07'2 3.4
2017-Oct-12 21:30N 47°48' E 035°09'0 0.0
2017-Oct-12 21:00N 47°48' E 035°09'0 1.0
2017-Oct-12 20:30N 47°49' E 035°09'2 4.4
2017-Oct-12 20:00N 47°50' E 035°06'2 3.5
2017-Oct-12 19:30N 47°52' E 035°05'0 0.2
2017-Oct-12 19:00N 47°52' E 035°05'1 1.8
2017-Oct-12 18:30N 47°53' E 035°06'1 1.5
2017-Oct-12 18:00N 47°52' E 035°06'0 0.3
2017-Oct-12 17:30N 47°52' E 035°05'2 3.8
2017-Oct-12 17:00N 47°50' E 035°06'3 5.5
2017-Oct-12 16:30N 47°48' E 035°10'2 3.5
2017-Oct-12 16:00N 47°49' E 035°07'2 4.4
2017-Oct-12 15:30N 47°51' E 035°05'1 1.8
2017-Oct-12 15:00N 47°52' E 035°05'0 0.1
2017-Oct-12 14:30N 47°52' E 035°06'1 2.1
2017-Oct-12 14:00N 47°53' E 035°06'0 0.2
2017-Oct-12 13:30N 47°53' E 035°06'0 0.1
2017-Oct-12 13:00N 47°53' E 035°06'1 2.0
2017-Oct-12 12:30N 47°54' E 035°06'2 3.3
2017-Oct-12 12:00N 47°55' E 035°07'2 3.3
2017-Oct-12 11:30N 47°57' E 035°07'2 3.3
2017-Oct-12 11:00N 47°59' E 035°07'2 3.3
2017-Oct-12 10:30N 48°00' E 035°08'2 3.2
2017-Oct-12 10:00N 48°02' E 035°07'2 3.3
2017-Oct-12 09:30N 48°03' E 035°06'  
Track history (hours):
 
Tides and Currents Weather Stations Pressure Air Temp Water Temp Dewpoint Dewpoint Depression Visibility Wind Speed Wind Dir Waves Ship Positions

Nibulon 5

Last reported at 2017-Oct-22 07:52 UTC. Time now 2017-Oct-22 08:03 UTC.
Position N 47°37' E 035°03'.

Length 38 m; draft 2.6 m.

Type: Tug. MMSI: 272735000.

Date/timePositionNaut miles runAvg speedWind from/ knotsBaromVisibWave heightAir tempDewpointWater temp
2017-Oct-22 07:52N 47°37' E 035°03'0 0.0
2017-Oct-22 07:28N 47°37' E 035°03'0 0.0
2017-Oct-22 06:58N 47°37' E 035°03'0 0.0
2017-Oct-22 06:04N 47°37' E 035°03'0 0.0
2017-Oct-22 05:58N 47°37' E 035°03'0 0.0
2017-Oct-21 19:02N 47°37' E 035°03'0 0.8
2017-Oct-21 19:00N 47°37' E 035°03'1 1.4
2017-Oct-21 18:30N 47°37' E 035°03'3 5.1
2017-Oct-21 18:00N 47°34' E 035°01'7 5.2
2017-Oct-21 16:43N 47°33' E 034°51'1 5.2
2017-Oct-21 16:30N 47°32' E 034°50'13 5.1
2017-Oct-21 13:58N 47°35' E 034°32'76 2.7
2017-Oct-20 10:00N 46°46' E 033°06'3 0.2
2017-Oct-19 19:50N 46°45' E 033°02'0 0.0
2017-Oct-19 19:20N 46°45' E 033°02'0 0.0
2017-Oct-19 18:56N 46°45' E 033°02'0 0.0
2017-Oct-19 17:11N 46°45' E 033°02'0 1.0
2017-Oct-19 17:00N 46°44' E 033°02'2 3.8
2017-Oct-19 16:30N 46°44' E 032°59'28 3.9
2017-Oct-19 09:17N 46°33' E 032°22'1 4.2
2017-Oct-19 09:01N 46°33' E 032°20'2 4.4
2017-Oct-19 08:30N 46°33' E 032°17'3 4.4
2017-Oct-19 07:55N 46°33' E 032°13'2 4.4
2017-Oct-19 07:30N 46°32' E 032°11'2 4.4
2017-Oct-19 06:59N 46°32' E 032°07'2 4.3
2017-Oct-19 06:30N 46°32' E 032°04'2 4.4
2017-Oct-19 06:00N 46°32' E 032°01'2 4.3
2017-Oct-19 05:30N 46°33' E 031°58'2 4.4
2017-Oct-19 05:00N 46°34' E 031°55'2 4.5
2017-Oct-19 04:30N 46°35' E 031°52'2 4.5
2017-Oct-19 04:00N 46°35' E 031°49'2 4.6
2017-Oct-19 03:30N 46°36' E 031°46'2 4.5
2017-Oct-19 03:00N 46°35' E 031°43'2 4.4
2017-Oct-19 02:30N 46°35' E 031°39'2 4.4
2017-Oct-19 02:01N 46°36' E 031°36'1 1.9
2017-Oct-19 01:30N 46°36' E 031°35'0 0.1
2017-Oct-19 01:00N 46°36' E 031°35'2 3.3
2017-Oct-19 00:30N 46°35' E 031°33'2 4.8
2017-Oct-19 00:00N 46°36' E 031°30'2 4.8
2017-Oct-18 23:31N 46°35' E 031°27'3 5.3
2017-Oct-18 23:00N 46°35' E 031°23'3 5.5
2017-Oct-18 22:27N 46°35' E 031°18'2 3.7
2017-Oct-18 22:00N 46°34' E 031°16'0 0.0
2017-Oct-18 18:25N 46°34' E 031°17'1 3.3
2017-Oct-18 18:00N 46°35' E 031°18'2 4.3
2017-Oct-18 17:31N 46°35' E 031°21'2 4.3
2017-Oct-18 16:57N 46°35' E 031°25'2 4.2
2017-Oct-18 16:30N 46°35' E 031°28'4 3.4
2017-Oct-18 15:23N 46°35' E 031°33'1 3.8
2017-Oct-18 14:59N 46°36' E 031°35'0 0.4
2017-Oct-18 14:01N 46°36' E 031°35'2 4.0
2017-Oct-18 13:30N 46°35' E 031°33'11 1.7
2017-Oct-18 06:52N 46°34' E 031°16'0 0.1
2017-Oct-18 06:25N 46°34' E 031°16'0 0.1
2017-Oct-18 05:55N 46°34' E 031°16'0 0.1
2017-Oct-18 05:19N 46°34' E 031°16'0 0.0
2017-Oct-18 03:38N 46°34' E 031°16'1 0.2
2017-Oct-17 23:52N 46°34' E 031°17'8 4.1
2017-Oct-17 21:47N 46°36' E 031°29'3 4.2
2017-Oct-17 21:05N 46°35' E 031°33'1 4.8
2017-Oct-17 20:59N 46°35' E 031°34'6 0.5
2017-Oct-17 09:45N 46°35' E 031°42'1 3.2
2017-Oct-17 09:29N 46°35' E 031°43'2 3.2
2017-Oct-17 08:59N 46°35' E 031°46'2 3.2
2017-Oct-17 08:28N 46°36' E 031°48'2 3.0
2017-Oct-17 07:43N 46°35' E 031°51'1 3.0
2017-Oct-17 07:31N 46°35' E 031°52'2 3.0
2017-Oct-17 07:00N 46°34' E 031°54'1 3.0
2017-Oct-17 06:31N 46°34' E 031°56'1 3.0
2017-Oct-17 06:01N 46°33' E 031°58'1 3.0
2017-Oct-17 05:30N 46°33' E 032°00'2 3.0
2017-Oct-17 05:00N 46°32' E 032°02'1 3.0
2017-Oct-17 04:30N 46°32' E 032°05'1 2.8
2017-Oct-17 04:00N 46°32' E 032°07'4 2.8
2017-Oct-17 02:45N 46°33' E 032°12'1 3.0
2017-Oct-17 02:29N 46°33' E 032°13'3 3.0
2017-Oct-17 01:36N 46°33' E 032°16'0 3.3
2017-Oct-17 01:31N 46°33' E 032°17'95 2.0
2017-Oct-15 02:42N 47°29' E 034°10'26 2.8
2017-Oct-14 17:35N 47°31' E 034°48'1 3.0
2017-Oct-14 17:11N 47°32' E 034°50'1 2.9
2017-Oct-14 16:56N 47°32' E 034°51'6 2.7
2017-Oct-14 14:43N 47°34' E 034°59'1 3.1
2017-Oct-14 14:27N 47°34' E 035°00'1 2.9
2017-Oct-14 14:00N 47°35' E 035°02'2 3.1
2017-Oct-14 13:30N 47°36' E 035°03'1 2.3
2017-Oct-14 13:00N 47°37' E 035°03'0 0.1
2017-Oct-14 12:30N 47°37' E 035°03'0 0.4
2017-Oct-14 11:47N 47°37' E 035°03'0 1.3
2017-Oct-14 11:30N 47°37' E 035°03'1 2.5
2017-Oct-14 11:00N 47°38' E 035°05'1 1.5
2017-Oct-14 10:30N 47°37' E 035°04'1 0.1
2017-Oct-13 23:16N 47°37' E 035°03'0 0.3
2017-Oct-13 23:00N 47°37' E 035°03'0 0.3
2017-Oct-13 22:30N 47°37' E 035°03'0 0.0
2017-Oct-13 22:00N 47°37' E 035°03'0 0.0
2017-Oct-13 18:31N 47°37' E 035°03'0 1.3
2017-Oct-13 18:30N 47°37' E 035°03'2 3.3
2017-Oct-13 18:00N 47°38' E 035°05'0 0.7
2017-Oct-13 17:30N 47°38' E 035°05'1 2.5
2017-Oct-13 17:00N 47°39' E 035°06'2 3.5
2017-Oct-13 16:30N 47°41' E 035°07'2 3.6
2017-Oct-13 16:00N 47°42' E 035°08'2 3.5
2017-Oct-13 15:30N 47°44' E 035°10'2 3.4
2017-Oct-13 15:00N 47°45' E 035°10'2 3.1
2017-Oct-13 14:30N 47°47' E 035°09'2 3.0
2017-Oct-13 14:00N 47°48' E 035°09'0 1.0
2017-Oct-13 13:30N 47°48' E 035°10'3 6.8
2017-Oct-13 13:00N 47°45' E 035°10'3 6.9
2017-Oct-13 12:30N 47°41' E 035°08'4 7.0
2017-Oct-13 12:00N 47°38' E 035°06'2 1.8
2017-Oct-13 10:51N 47°37' E 035°03'1 1.6
2017-Oct-13 10:30N 47°37' E 035°04'2 3.4
2017-Oct-13 10:00N 47°38' E 035°06'2 3.3
2017-Oct-13 09:30N 47°40' E 035°07'2 3.5
2017-Oct-13 09:00N 47°41' E 035°08'2 3.4
2017-Oct-13 08:31N 47°43' E 035°09'2 3.3
2017-Oct-13 08:00N 47°45' E 035°10'2 3.5
2017-Oct-13 07:30N 47°46' E 035°09'2 3.3
2017-Oct-13 07:00N 47°48' E 035°10'1 1.9
2017-Oct-13 06:30N 47°49' E 035°09'0 0.3
2017-Oct-13 06:00N 47°49' E 035°09'2 4.3
2017-Oct-13 05:30N 47°50' E 035°06'2 3.7
2017-Oct-13 05:00N 47°52' E 035°05'0 0.7
2017-Oct-13 04:30N 47°52' E 035°06'0 0.5
2017-Oct-13 04:00N 47°52' E 035°06'1 2.0
2017-Oct-13 03:30N 47°53' E 035°06'1 2.4
2017-Oct-13 03:00N 47°52' E 035°06'0 0.1
2017-Oct-13 02:30N 47°52' E 035°05'3 5.6
2017-Oct-13 02:00N 47°49' E 035°08'1 2.2
2017-Oct-13 01:30N 47°49' E 035°09'2 4.5
2017-Oct-13 01:00N 47°50' E 035°06'2 3.6
2017-Oct-13 00:30N 47°52' E 035°05'0 0.3
2017-Oct-13 00:00N 47°52' E 035°05'1 1.7
2017-Oct-12 23:30N 47°53' E 035°06'1 1.6
2017-Oct-12 23:00N 47°52' E 035°06'0 0.1
2017-Oct-12 22:30N 47°52' E 035°06'3 5.2
2017-Oct-12 22:01N 47°50' E 035°07'2 3.4
2017-Oct-12 21:30N 47°48' E 035°09'0 0.0
2017-Oct-12 21:00N 47°48' E 035°09'0 1.0
2017-Oct-12 20:30N 47°49' E 035°09'2 4.4
2017-Oct-12 20:00N 47°50' E 035°06'2 3.5
2017-Oct-12 19:30N 47°52' E 035°05'0 0.2
2017-Oct-12 19:00N 47°52' E 035°05'1 1.8
2017-Oct-12 18:30N 47°53' E 035°06'1 1.5
2017-Oct-12 18:00N 47°52' E 035°06'0 0.3
2017-Oct-12 17:30N 47°52' E 035°05'2 3.8
2017-Oct-12 17:00N 47°50' E 035°06'3 5.5
2017-Oct-12 16:30N 47°48' E 035°10'2 3.5
2017-Oct-12 16:00N 47°49' E 035°07'2 4.4
2017-Oct-12 15:30N 47°51' E 035°05'1 1.8
2017-Oct-12 15:00N 47°52' E 035°05'0 0.1
2017-Oct-12 14:30N 47°52' E 035°06'1 2.1
2017-Oct-12 14:00N 47°53' E 035°06'0 0.2
2017-Oct-12 13:30N 47°53' E 035°06'0 0.1
2017-Oct-12 13:00N 47°53' E 035°06'1 2.0
2017-Oct-12 12:30N 47°54' E 035°06'2 3.3
2017-Oct-12 12:00N 47°55' E 035°07'2 3.3
2017-Oct-12 11:30N 47°57' E 035°07'2 3.3
2017-Oct-12 11:00N 47°59' E 035°07'2 3.3
2017-Oct-12 10:30N 48°00' E 035°08'2 3.2
2017-Oct-12 10:00N 48°02' E 035°07'2 3.3
2017-Oct-12 09:30N 48°03' E 035°06'  

Dump ship's entire track history